Time;durP1;ratioP1;P1;durP2;ratioP2;P2;SDS_P1;SDS_P2;PMS_P1;PMS_P2;Temp;Humidity;BMP_temperature;BMP_pressure;BME280_temperature;BME280_humidity;BME280_pressure;Samples;Min_cycle;Max_cycle;Signal;HPM_P1;HPM_P2
2022/04/17 04:01:56;;;;;;;4.30;3.07;;;-3.10;96.30;;;;;;5279183;23;20484;-77
2022/04/17 04:04:21;;;;;;;8.13;4.47;;;-3.00;96.30;;;;;;4994239;28;20424;-77
2022/04/17 04:06:47;;;;;;;11.67;5.70;;;-3.10;96.30;;;;;;4994447;28;20185;-77
2022/04/17 04:09:12;;;;;;;5.57;3.70;;;-3.10;96.30;;;;;;4981881;28;20248;-77
2022/04/17 04:11:37;;;;;;;8.40;3.00;;;-3.00;96.30;;;;;;4981697;28;20229;-77
2022/04/17 04:14:05;;;;;;;4.50;3.07;;;-2.90;96.30;;;;;;4992474;28;20177;-78
2022/04/17 04:16:31;;;;;;;7.63;3.33;;;-2.90;96.30;;;;;;4993673;28;20184;-76
2022/04/17 04:18:56;;;;;;;5.43;4.00;;;-2.90;96.30;;;;;;4991799;28;20500;-76
2022/04/17 04:21:22;;;;;;;6.40;4.03;;;-3.00;96.30;;;;;;4985073;28;20186;-75
2022/04/17 04:23:48;;;;;;;4.87;3.10;;;-3.00;96.30;;;;;;4974499;28;20175;-76
2022/04/17 04:26:14;;;;;;;3.87;3.17;;;-3.00;96.30;;;;;;4974763;28;20174;-76
2022/04/17 04:28:39;;;;;;;6.87;3.67;;;-2.90;96.30;;;;;;4974212;28;20409;-77
2022/04/17 04:31:10;;;;;;;3.60;2.97;;;-2.80;96.30;;;;;;4974417;28;20198;-75
2022/04/17 04:33:37;;;;;;;4.13;3.30;;;-2.90;96.30;;;;;;4973275;28;20186;-76
2022/04/17 04:36:05;;;;;;;4.03;3.20;;;-2.90;96.30;;;;;;4972889;28;20457;-77
2022/04/17 04:38:31;;;;;;;26.80;9.53;;;-2.90;96.30;;;;;;4973887;28;20620;-76
2022/04/17 04:40:56;;;;;;;34.00;14.90;;;-3.00;96.30;;;;;;4974183;28;20430;-76
2022/04/17 04:43:22;;;;;;;47.43;19.30;;;-2.80;96.30;;;;;;4974473;28;20406;-78
2022/04/17 04:46:06;;;;;;;17.90;9.80;;;-2.70;96.30;;;;;;4979256;28;20182;-75
2022/04/17 04:51:16;;;;;;;6.80;3.80;;;-2.60;96.30;;;;;;4974476;28;20528;-77
2022/04/17 04:53:41;;;;;;;3.60;3.27;;;-2.40;96.30;;;;;;4974261;28;20508;-75
2022/04/17 04:56:07;;;;;;;10.53;7.73;;;-2.20;96.30;;;;;;4974169;28;20210;-75
2022/04/17 04:58:33;;;;;;;25.90;18.67;;;-2.10;96.30;;;;;;4973952;28;20170;-76
2022/04/17 05:00:59;;;;;;;20.33;11.67;;;-1.90;96.30;;;;;;4973884;28;20492;-76
2022/04/17 05:03:25;;;;;;;7.00;5.63;;;-1.80;96.30;;;;;;4974103;28;20782;-76
2022/04/17 05:05:53;;;;;;;7.73;4.10;;;-1.60;96.30;;;;;;4973775;28;20189;-77
2022/04/17 05:08:19;;;;;;;6.07;4.40;;;-1.50;96.30;;;;;;4973568;28;20244;-76
2022/04/17 05:10:46;;;;;;;13.23;5.60;;;-1.40;96.30;;;;;;4973916;28;20512;-75
2022/04/17 05:13:11;;;;;;;7.03;3.63;;;-1.30;96.30;;;;;;4972362;28;20479;-76
2022/04/17 05:15:37;;;;;;;5.83;3.60;;;-1.20;96.30;;;;;;4973709;28;20449;-77
2022/04/17 05:18:03;;;;;;;4.60;3.37;;;-1.10;96.30;;;;;;4973542;28;20320;-75
2022/04/17 05:20:33;;;;;;;5.63;3.30;;;-0.80;96.30;;;;;;4973540;28;20206;-77
2022/04/17 05:23:04;;;;;;;6.37;3.93;;;-0.50;96.30;;;;;;4992817;28;20507;-75
2022/04/17 05:25:29;;;;;;;3.80;3.33;;;-0.30;96.30;;;;;;4991592;28;20443;-77
2022/04/17 05:27:55;;;;;;;4.20;3.70;;;-0.10;96.30;;;;;;4994285;28;20421;-75
2022/04/17 05:30:21;;;;;;;5.20;3.20;;;0.40;96.30;;;;;;4992857;28;20186;-76
2022/04/17 05:32:46;;;;;;;4.70;2.50;;;1.20;96.30;;;;;;4992882;28;20736;-76
2022/04/17 05:35:11;;;;;;;3.90;2.90;;;1.90;96.30;;;;;;4988670;28;20235;-79
2022/04/17 05:37:37;;;;;;;5.50;2.90;;;2.60;96.30;;;;;;4994320;28;20228;-77
2022/04/17 05:40:03;;;;;;;9.33;6.87;;;3.40;96.30;;;;;;4992629;28;20173;-76
2022/04/17 05:42:29;;;;;;;8.63;6.80;;;4.30;96.30;;;;;;4992530;28;20684;-77
2022/04/17 05:44:55;;;;;;;4.63;4.17;;;5.00;96.30;;;;;;5004959;28;20455;-78
2022/04/17 05:47:21;;;;;;;3.97;3.57;;;5.80;96.30;;;;;;4993467;28;20787;-77
2022/04/17 05:49:46;;;;;;;3.43;2.67;;;6.40;96.30;;;;;;4992290;28;20182;-78
2022/04/17 05:52:12;;;;;;;3.43;2.70;;;6.90;96.30;;;;;;4992533;28;20194;-76
2022/04/17 05:54:43;;;;;;;3.17;2.60;;;6.60;96.30;;;;;;4992294;28;20201;-76
2022/04/17 05:57:09;;;;;;;3.37;2.73;;;6.30;96.30;;;;;;4992402;28;20166;-77
2022/04/17 05:59:36;;;;;;;3.90;2.40;;;6.50;96.30;;;;;;4992439;28;20432;-77
2022/04/17 06:02:02;;;;;;;3.10;2.33;;;6.70;96.30;;;;;;4992401;28;20212;-77
2022/04/17 06:04:28;;;;;;;5.43;3.00;;;6.90;96.30;;;;;;4992668;28;20843;-79
2022/04/17 06:06:54;;;;;;;3.93;2.50;;;7.50;96.30;;;;;;4994082;28;20483;-78
2022/04/17 06:09:19;;;;;;;4.30;3.00;;;6.80;96.30;;;;;;4992681;28;20250;-78
2022/04/17 06:11:45;;;;;;;3.70;3.00;;;7.30;96.30;;;;;;4991833;28;20205;-78
2022/04/17 06:14:10;;;;;;;4.10;2.80;;;8.20;96.30;;;;;;4992631;28;20190;-79
2022/04/17 06:16:36;;;;;;;3.50;2.70;;;8.10;96.30;;;;;;4992213;28;20177;-79
2022/04/17 06:19:01;;;;;;;5.13;3.07;;;9.10;96.30;;;;;;4990969;28;20178;-74
2022/04/17 06:21:28;;;;;;;3.90;3.10;;;10.10;94.40;;;;;;4992238;28;20194;-74
2022/04/17 06:23:54;;;;;;;4.70;3.50;;;10.30;93.00;;;;;;4992463;28;20248;-74
2022/04/17 06:26:19;;;;;;;3.53;3.17;;;9.70;95.60;;;;;;4995519;28;20420;-77
2022/04/17 06:28:45;;;;;;;3.00;2.43;;;9.50;95.90;;;;;;4997016;28;20257;-80
2022/04/17 06:31:10;;;;;;;3.30;3.00;;;10.00;94.90;;;;;;4996464;28;20236;-79
2022/04/17 06:33:36;;;;;;;3.50;2.80;;;10.90;91.40;;;;;;4997057;28;20271;-78
2022/04/17 06:36:01;;;;;;;3.83;2.80;;;11.00;89.80;;;;;;4994865;28;20205;-78
2022/04/17 06:38:28;;;;;;;3.97;3.00;;;10.50;93.70;;;;;;4995828;28;20601;-78
2022/04/17 06:40:53;;;;;;;9.27;3.27;;;12.10;86.80;;;;;;4995661;28;20277;-78
2022/04/17 06:43:19;;;;;;;7.60;3.13;;;12.20;86.70;;;;;;4996472;28;20448;-78
2022/04/17 06:45:44;;;;;;;3.83;3.40;;;12.30;86.40;;;;;;4999321;28;20185;-79
2022/04/17 06:48:17;;;;;;;4.60;3.40;;;12.80;83.90;;;;;;4999126;28;20200;-78
2022/04/17 06:50:43;;;;;;;4.03;3.30;;;12.40;85.50;;;;;;4996970;28;20276;-76
2022/04/17 06:53:09;;;;;;;3.10;2.80;;;12.00;86.40;;;;;;4995452;28;20499;-76
2022/04/17 06:55:34;;;;;;;4.67;3.50;;;12.20;88.00;;;;;;4995486;28;21031;-77
2022/04/17 06:58:00;;;;;;;5.27;3.30;;;12.80;86.50;;;;;;4996979;28;20181;-79
2022/04/17 07:00:26;;;;;;;4.10;3.20;;;13.90;85.00;;;;;;4999668;28;20198;-79
2022/04/17 07:02:51;;;;;;;7.03;3.90;;;14.30;82.70;;;;;;4999775;28;20177;-79
2022/04/17 07:05:17;;;;;;;3.77;3.07;;;15.10;80.50;;;;;;4997322;28;20217;-78
2022/04/17 07:07:42;;;;;;;4.63;3.73;;;15.50;80.50;;;;;;4993908;28;20194;-78
2022/04/17 07:10:09;;;;;;;4.77;3.50;;;15.50;80.50;;;;;;4995118;28;20174;-78
2022/04/17 07:12:35;;;;;;;4.33;3.90;;;13.60;79.60;;;;;;4995737;28;20177;-78
2022/04/17 07:15:02;;;;;;;5.53;3.93;;;14.60;79.30;;;;;;4988779;28;20467;-78
2022/04/17 07:17:37;;;;;;;4.83;4.03;;;14.80;75.80;;;;;;4979918;28;20437;-78
2022/04/17 07:20:07;;;;;;;6.17;4.17;;;12.90;80.90;;;;;;4974308;28;20448;-78
2022/04/17 07:22:34;;;;;;;6.70;3.97;;;15.00;75.70;;;;;;4975560;28;20449;-78
2022/04/17 07:25:01;;;;;;;7.47;4.60;;;16.60;72.80;;;;;;4975468;28;20485;-78
2022/04/17 07:27:33;;;;;;;4.87;4.23;;;17.20;66.40;;;;;;4974824;28;20418;-78
2022/04/17 07:29:59;;;;;;;3.80;3.47;;;17.60;65.70;;;;;;4975484;28;20504;-78
2022/04/17 07:32:25;;;;;;;8.73;4.43;;;;;;;;;;4975430;28;20517;-78
2022/04/17 07:34:50;;;;;;;6.83;4.40;;;16.50;68.70;;;;;;4975328;28;20194;-78
2022/04/17 07:37:24;;;;;;;5.67;4.20;;;17.60;67.80;;;;;;4975762;28;20460;-78
2022/04/17 07:39:50;;;;;;;5.50;4.20;;;17.10;70.50;;;;;;4980729;28;20197;-79
2022/04/17 07:42:19;;;;;;;6.10;4.30;;;16.60;69.50;;;;;;4994766;28;20436;-78
2022/04/17 07:44:44;;;;;;;4.43;3.73;;;15.90;67.40;;;;;;4995551;28;20176;-79
2022/04/17 07:47:10;;;;;;;4.40;3.77;;;16.10;70.60;;;;;;4996172;28;20409;-82
2022/04/17 07:49:35;;;;;;;5.03;3.90;;;15.40;69.80;;;;;;4994317;28;20216;-79
2022/04/17 07:52:01;;;;;;;5.20;3.47;;;15.60;72.60;;;;;;4996384;28;20563;-81
2022/04/17 07:54:26;;;;;;;4.30;3.90;;;15.70;72.70;;;;;;4995071;28;20239;-79
2022/04/17 07:56:52;;;;;;;4.27;3.53;;;16.00;73.20;;;;;;4995116;28;20625;-79
2022/04/17 07:59:18;;;;;;;4.13;3.40;;;15.30;70.80;;;;;;4994673;28;20188;-78
2022/04/17 08:01:45;;;;;;;7.07;3.30;;;15.10;72.90;;;;;;4995045;28;20453;-78
2022/04/17 08:04:11;;;;;;;4.33;2.83;;;14.00;73.00;;;;;;4996101;28;20166;-78
2022/04/17 08:06:37;;;;;;;4.73;3.33;;;13.90;72.60;;;;;;4995691;28;20416;-79
2022/04/17 08:09:02;;;;;;;5.03;3.07;;;15.00;72.10;;;;;;4994832;28;20245;-79
2022/04/17 08:11:29;;;;;;;6.20;3.40;;;14.40;76.40;;;;;;4995812;28;20197;-79
2022/04/17 08:13:55;;;;;;;4.10;3.30;;;14.80;72.50;;;;;;4994018;28;20179;-79
2022/04/17 08:16:20;;;;;;;3.70;3.27;;;15.10;75.20;;;;;;4989005;28;20476;-79
2022/04/17 08:18:46;;;;;;;5.30;2.90;;;15.40;74.00;;;;;;4992930;28;20189;-78
2022/04/17 08:21:12;;;;;;;6.77;3.30;;;13.60;72.50;;;;;;4994558;28;20211;-79
2022/04/17 08:23:37;;;;;;;3.97;3.57;;;14.70;78.50;;;;;;4994449;28;20173;-79
2022/04/17 08:26:05;;;;;;;7.00;3.27;;;14.50;75.90;;;;;;4993987;28;20683;-79
2022/04/17 08:28:31;;;;;;;4.50;3.73;;;15.00;76.30;;;;;;4994490;28;20645;-79
2022/04/17 08:30:57;;;;;;;4.23;3.00;;;14.80;72.40;;;;;;4994479;28;20510;-79
2022/04/17 08:33:24;;;;;;;3.43;2.97;;;13.40;72.90;;;;;;4994693;28;20940;-79
2022/04/17 08:35:50;;;;;;;8.17;3.20;;;12.80;75.70;;;;;;4993607;28;20463;-79
2022/04/17 08:38:16;;;;;;;4.37;3.20;;;12.80;76.30;;;;;;4993990;28;20405;-79
2022/04/17 08:40:41;;;;;;;4.67;2.87;;;13.30;78.60;;;;;;4994205;28;20433;-79
2022/04/17 08:43:08;;;;;;;5.83;3.90;;;12.70;79.80;;;;;;4994295;28;20576;-79
2022/04/17 08:45:34;;;;;;;3.97;3.10;;;12.90;78.90;;;;;;4994220;28;20176;-79
2022/04/17 08:48:01;;;;;;;4.13;2.87;;;13.00;76.20;;;;;;4993702;28;20421;-79
2022/04/17 08:50:26;;;;;;;3.50;2.60;;;12.60;76.10;;;;;;4993510;28;20177;-79
2022/04/17 08:52:53;;;;;;;5.10;3.20;;;11.90;75.80;;;;;;4993465;28;20460;-79
2022/04/17 08:55:19;;;;;;;2.87;2.30;;;12.50;76.40;;;;;;4995069;28;20225;-78
2022/04/17 08:57:44;;;;;;;2.67;2.10;;;13.30;72.20;;;;;;4997207;28;20907;-80
2022/04/17 09:00:14;;;;;;;4.33;2.17;;;12.60;69.70;;;;;;4997502;28;20173;-80
2022/04/17 09:02:39;;;;;;;4.03;1.73;;;12.90;71.60;;;;;;4997754;28;20197;-80
2022/04/17 09:05:10;;;;;;;4.17;1.63;;;13.00;70.60;;;;;;4995052;28;20416;-79
2022/04/17 09:07:40;;;;;;;2.90;2.00;;;12.00;67.00;;;;;;4991273;28;20284;-77
2022/04/17 09:10:07;;;;;;;1.97;1.60;;;11.60;69.10;;;;;;4991525;28;20420;-77
2022/04/17 09:12:32;;;;;;;2.50;1.60;;;11.00;69.10;;;;;;4992497;28;20793;-76
2022/04/17 09:14:58;;;;;;;4.60;1.77;;;10.90;70.20;;;;;;4992876;28;20453;-76
2022/04/17 09:17:34;;;;;;;1.70;1.50;;;11.20;72.90;;;;;;4992578;28;20712;-78
2022/04/17 09:20:03;;;;;;;1.80;1.43;;;11.60;72.20;;;;;;4992383;28;20177;-78
2022/04/17 09:22:48;;;;;;;2.33;1.50;;;12.00;72.60;;;;;;4992827;28;20437;-76
2022/04/17 09:25:14;;;;;;;1.93;1.37;;;11.90;70.50;;;;;;4992695;28;20409;-78
2022/04/17 09:27:57;;;;;;;2.87;1.70;;;12.10;70.00;;;;;;4992390;28;20416;-80
2022/04/17 09:30:34;;;;;;;2.33;1.70;;;11.90;70.20;;;;;;4993500;28;20416;-79
2022/04/17 09:33:09;;;;;;;2.90;1.80;;;11.90;71.60;;;;;;4994852;28;20428;-80
2022/04/17 09:35:35;;;;;;;3.80;1.90;;;12.00;72.20;;;;;;4994848;28;20486;-78
2022/04/17 09:38:03;;;;;;;2.27;1.17;;;11.80;74.00;;;;;;4994089;28;20420;-80
2022/04/17 09:40:31;;;;;;;2.13;1.53;;;11.80;71.10;;;;;;4990274;28;20280;-80
2022/04/17 09:43:15;;;;;;;1.40;0.87;;;12.70;71.20;;;;;;5006358;28;20443;-79
2022/04/17 09:46:00;;;;;;;3.67;1.13;;;11.70;67.40;;;;;;4980018;28;20940;-76
2022/04/17 09:48:37;;;;;;;1.30;0.90;;;10.90;65.30;;;;;;4983169;28;20421;-76
2022/04/17 09:51:25;;;;;;;1.40;1.00;;;10.20;67.90;;;;;;4992363;28;20447;-77
2022/04/17 09:54:05;;;;;;;2.70;0.93;;;10.50;70.90;;;;;;4992700;28;20447;-76
2022/04/17 09:56:35;;;;;;;2.17;1.10;;;10.60;67.70;;;;;;4989457;28;20457;-76
2022/04/17 09:59:17;;;;;;;2.17;1.43;;;10.20;69.20;;;;;;4991807;28;20970;-76
2022/04/17 10:01:50;;;;;;;1.47;1.13;;;10.50;69.90;;;;;;4992158;28;20463;-77
2022/04/17 10:04:19;;;;;;;4.47;1.10;;;10.40;68.80;;;;;;4999906;28;20453;-76
2022/04/17 10:06:46;;;;;;;1.70;1.40;;;9.90;69.10;;;;;;4990932;28;20432;-75
2022/04/17 10:09:13;;;;;;;3.67;1.40;;;10.00;71.80;;;;;;4991235;28;20983;-76
2022/04/17 10:11:40;;;;;;;2.20;1.57;;;10.40;73.80;;;;;;4992184;28;20464;-75
2022/04/17 10:14:06;;;;;;;1.50;1.23;;;10.80;73.10;;;;;;4990600;28;20427;-75
2022/04/17 10:16:33;;;;;;;3.10;1.50;;;11.10;71.40;;;;;;4992026;28;20453;-76
2022/04/17 10:19:10;;;;;;;2.33;1.30;;;10.50;71.00;;;;;;4991635;28;20405;-78
2022/04/17 10:21:36;;;;;;;2.67;1.00;;;10.50;73.40;;;;;;4996091;28;20432;-75
2022/04/17 10:24:04;;;;;;;2.77;1.33;;;10.50;71.10;;;;;;4992876;28;20523;-76
2022/04/17 10:26:36;;;;;;;2.80;1.23;;;10.90;72.60;;;;;;4995776;28;20197;-75
2022/04/17 10:29:06;;;;;;;3.17;1.40;;;10.80;74.50;;;;;;4993034;28;20424;-76
2022/04/17 10:31:56;;;;;;;1.40;1.23;;;10.50;74.20;;;;;;4995856;28;20467;-75
2022/04/17 10:34:40;;;;;;;2.23;1.20;;;10.50;75.90;;;;;;4995433;28;20420;-75
2022/04/17 10:37:47;;;;;;;2.13;1.27;;;10.00;71.90;;;;;;4996081;28;20388;-77
2022/04/17 10:40:13;;;;;;;3.70;1.50;;;9.90;73.10;;;;;;4994807;28;20405;-79
2022/04/17 10:42:55;;;;;;;1.40;0.93;;;10.20;74.90;;;;;;4996330;28;20409;-79
2022/04/17 10:45:22;;;;;;;2.17;1.10;;;10.50;73.20;;;;;;4996131;28;20932;-79
2022/04/17 10:48:26;;;;;;;1.07;0.90;;;10.70;73.70;;;;;;4995553;28;20420;-79
2022/04/17 10:50:52;;;;;;;1.83;1.00;;;10.50;69.90;;;;;;4955717;28;20444;-79
2022/04/17 10:53:29;;;;;;;1.90;1.20;;;10.30;70.40;;;;;;4997018;28;20492;-79
2022/04/17 10:56:06;;;;;;;1.60;1.13;;;10.10;71.20;;;;;;4995865;28;20536;-76
2022/04/17 10:58:41;;;;;;;1.80;1.10;;;9.80;73.20;;;;;;4994948;28;20408;-77
2022/04/17 11:01:08;;;;;;;2.80;1.50;;;10.50;72.50;;;;;;4995217;28;20818;-77
2022/04/17 11:03:35;;;;;;;1.27;0.93;;;11.00;73.50;;;;;;4994990;28;20412;-77
2022/04/17 11:06:33;;;;;;;2.10;1.20;;;10.40;73.00;;;;;;4994972;28;20417;-77
2022/04/17 11:09:13;;;;;;;1.67;1.27;;;10.60;72.70;;;;;;4990615;28;20444;-77
2022/04/17 11:11:46;;;;;;;3.03;1.50;;;11.10;73.50;;;;;;4994780;28;20991;-77
2022/04/17 11:14:21;;;;;;;3.10;1.40;;;11.50;72.00;;;;;;4994992;28;20428;-77
2022/04/17 11:16:58;;;;;;;4.50;1.50;;;11.20;73.40;;;;;;4995072;28;20408;-77
2022/04/17 11:19:31;;;;;;;1.67;1.17;;;11.10;73.70;;;;;;4994592;28;20893;-77
2022/04/17 11:22:07;;;;;;;2.10;1.20;;;11.20;72.50;;;;;;4991825;28;20499;-75
2022/04/17 11:24:54;;;;;;;1.67;1.17;;;11.10;73.70;;;;;;4991201;28;20416;-76
2022/04/17 11:27:43;;;;;;;1.70;1.57;;;11.10;73.70;;;;;;4994987;28;20417;-73
2022/04/17 11:30:31;;;;;;;2.70;0.90;;;10.70;74.30;;;;;;4995196;28;20415;-76
2022/04/17 11:32:56;;;;;;;1.80;1.30;;;10.70;74.20;;;;;;4994991;28;20420;-76
2022/04/17 11:35:26;;;;;;;3.57;1.90;;;10.80;74.10;;;;;;4994867;28;20555;-75
2022/04/17 11:38:03;;;;;;;1.40;1.30;;;11.10;77.30;;;;;;4994134;28;20543;-75
2022/04/17 11:40:31;;;;;;;2.00;1.30;;;10.90;76.10;;;;;;4994575;28;20443;-75
2022/04/17 11:43:08;;;;;;;3.00;1.33;;;11.40;75.90;;;;;;4996477;28;20456;-77
2022/04/17 11:45:33;;;;;;;3.43;1.57;;;11.40;77.20;;;;;;4994909;28;20428;-76
2022/04/17 11:48:07;;;;;;;2.47;1.50;;;11.30;78.10;;;;;;4979813;28;20431;-76
2022/04/17 11:50:33;;;;;;;4.67;2.43;;;11.10;78.30;;;;;;4991691;28;20229;-75
2022/04/17 11:53:17;;;;;;;3.10;2.07;;;11.30;77.20;;;;;;4992624;28;20858;-75
2022/04/17 11:55:46;;;;;;;3.23;1.93;;;11.80;77.60;;;;;;4988045;28;20193;-76
2022/04/17 11:58:25;;;;;;;1.73;1.50;;;11.80;76.50;;;;;;4993023;28;20408;-76
2022/04/17 12:00:59;;;;;;;4.00;2.03;;;11.50;76.90;;;;;;4993083;28;20455;-75
2022/04/17 12:03:39;;;;;;;5.70;1.80;;;11.60;80.40;;;;;;4992047;28;20483;-75
2022/04/17 12:06:06;;;;;;;2.90;1.83;;;11.80;81.10;;;;;;4992138;28;20427;-75
2022/04/17 12:08:34;;;;;;;1.50;1.40;;;11.70;76.60;;;;;;4989831;28;20419;-74
2022/04/17 12:11:00;;;;;;;2.50;1.37;;;11.50;78.70;;;;;;4992788;28;20428;-75
2022/04/17 12:13:25;;;;;;;2.13;1.93;;;11.30;76.80;;;;;;4993338;28;20471;-75
2022/04/17 12:16:04;;;;;;;3.20;1.80;;;11.30;77.90;;;;;;4991164;28;20573;-75
2022/04/17 12:18:30;;;;;;;1.90;1.43;;;11.50;78.10;;;;;;4992645;28;20185;-75
2022/04/17 12:20:58;;;;;;;3.00;1.40;;;11.60;78.90;;;;;;5000531;28;20447;-75
2022/04/17 12:23:25;;;;;;;2.50;1.53;;;11.10;77.10;;;;;;4993724;28;20231;-75
2022/04/17 12:25:51;;;;;;;1.50;1.07;;;11.10;77.50;;;;;;4993664;28;20423;-75
2022/04/17 12:28:17;;;;;;;2.13;1.50;;;11.50;77.40;;;;;;4993139;28;20784;-75
2022/04/17 12:30:42;;;;;;;2.20;1.30;;;11.00;77.90;;;;;;4990249;28;20441;-76
2022/04/17 12:33:22;;;;;;;3.00;1.87;;;11.20;77.90;;;;;;4992498;28;20217;-76
2022/04/17 12:36:02;;;;;;;1.87;1.33;;;11.60;79.10;;;;;;4993567;28;20468;-78
2022/04/17 12:38:27;;;;;;;1.93;1.07;;;12.10;76.70;;;;;;4984956;28;20432;-76
2022/04/17 12:40:53;;;;;;;1.40;1.10;;;11.80;78.40;;;;;;4987432;28;20460;-77
2022/04/17 12:43:20;;;;;;;2.53;1.53;;;12.00;76.70;;;;;;4992698;28;20216;-77
2022/04/17 12:45:57;;;;;;;2.27;1.47;;;11.40;77.20;;;;;;4986775;28;20248;-76
2022/04/17 12:48:27;;;;;;;1.90;1.30;;;11.10;77.90;;;;;;4997033;28;20496;-77
2022/04/17 12:50:57;;;;;;;2.67;1.40;;;11.40;79.60;;;;;;4992772;28;20440;-75
2022/04/17 12:53:23;;;;;;;3.20;1.17;;;11.40;78.20;;;;;;4974192;28;20413;-74
2022/04/17 12:55:52;;;;;;;2.13;1.33;;;11.60;77.30;;;;;;4979503;28;20515;-75
2022/04/17 12:58:18;;;;;;;4.20;1.27;;;11.40;76.90;;;;;;4992459;28;20198;-75
2022/04/17 13:00:53;;;;;;;1.60;1.20;;;11.60;77.60;;;;;;4991480;28;20499;-75
2022/04/17 13:03:19;;;;;;;3.67;1.30;;;11.60;78.00;;;;;;4993456;28;20201;-75
2022/04/17 13:06:00;;;;;;;1.53;1.10;;;11.40;77.60;;;;;;4993315;28;20440;-75
2022/04/17 13:08:26;;;;;;;1.90;1.10;;;11.40;76.40;;;;;;4992698;28;20166;-76
2022/04/17 13:10:51;;;;;;;1.90;1.47;;;12.00;78.20;;;;;;4992933;28;20852;-75
2022/04/17 13:13:17;;;;;;;1.77;1.30;;;12.60;76.60;;;;;;4993218;28;20181;-75
2022/04/17 13:15:42;;;;;;;1.80;1.20;;;12.80;75.00;;;;;;4992906;28;20565;-75
2022/04/17 13:18:08;;;;;;;2.40;1.27;;;13.00;74.10;;;;;;4990900;28;20181;-76
2022/04/17 13:20:34;;;;;;;1.57;1.13;;;13.20;74.10;;;;;;4992993;28;20313;-76
2022/04/17 13:23:02;;;;;;;3.43;1.67;;;13.00;73.80;;;;;;4992690;28;20173;-75
2022/04/17 13:25:28;;;;;;;2.37;1.37;;;12.90;74.70;;;;;;4985653;28;21088;-76
2022/04/17 13:27:53;;;;;;;2.07;1.53;;;12.70;74.90;;;;;;4992160;28;20417;-76
2022/04/17 13:30:20;;;;;;;1.63;1.40;;;12.70;77.90;;;;;;4992530;28;20681;-75
2022/04/17 13:32:46;;;;;;;3.87;1.57;;;12.80;74.30;;;;;;4992879;28;20268;-75
2022/04/17 13:35:12;;;;;;;2.23;1.80;;;13.20;75.90;;;;;;4991355;28;20556;-75
2022/04/17 13:40:22;;;;;;;2.30;1.57;;;12.50;77.20;;;;;;4992816;28;20424;-76
2022/04/17 13:42:48;;;;;;;4.30;1.90;;;12.40;78.80;;;;;;4991832;28;20429;-77
2022/04/17 13:45:14;;;;;;;2.43;1.20;;;12.80;77.50;;;;;;4993114;28;20181;-77
2022/04/17 13:47:40;;;;;;;1.43;1.30;;;13.60;80.20;;;;;;4992427;28;20283;-77
2022/04/17 13:50:09;;;;;;;2.40;1.47;;;13.40;73.90;;;;;;4992887;28;20193;-77
2022/04/17 13:52:35;;;;;;;1.97;1.63;;;12.40;75.40;;;;;;4997260;28;20447;-75
2022/04/17 13:55:02;;;;;;;2.93;1.33;;;11.70;79.00;;;;;;4992786;28;20469;-78
2022/04/17 13:57:27;;;;;;;3.13;1.53;;;11.70;80.30;;;;;;4993166;28;20413;-78
2022/04/17 13:59:53;;;;;;;1.97;1.70;;;12.00;80.50;;;;;;4992836;28;20404;-75
2022/04/17 14:02:19;;;;;;;4.70;1.60;;;12.60;78.40;;;;;;4992416;28;20260;-76
2022/04/17 14:04:44;;;;;;;4.17;1.60;;;12.40;77.80;;;;;;4992448;28;20169;-77
2022/04/17 14:07:10;;;;;;;1.83;1.43;;;12.60;77.10;;;;;;4993060;28;20177;-76
2022/04/17 14:09:38;;;;;;;2.60;1.37;;;12.40;77.70;;;;;;4991717;28;20177;-77
2022/04/17 14:12:06;;;;;;;1.63;1.43;;;12.00;78.60;;;;;;4992444;28;20255;-76
2022/04/17 14:14:33;;;;;;;1.80;1.43;;;11.90;78.40;;;;;;4992302;28;20854;-80
2022/04/17 14:16:58;;;;;;;2.07;1.30;;;11.60;78.20;;;;;;4992271;28;20409;-76
2022/04/17 14:19:24;;;;;;;1.43;1.33;;;11.50;80.30;;;;;;4991763;28;20548;-77
2022/04/17 14:21:49;;;;;;;4.27;2.00;;;11.40;82.10;;;;;;4992529;28;20820;-75
2022/04/17 14:24:15;;;;;;;4.73;2.30;;;11.30;83.90;;;;;;4992086;28;20178;-76
2022/04/17 14:26:41;;;;;;;2.23;1.70;;;11.20;87.00;;;;;;4991904;28;20193;-77
2022/04/17 14:29:07;;;;;;;3.70;1.77;;;11.10;87.80;;;;;;4991526;28;20174;-76
2022/04/17 14:31:32;;;;;;;2.90;1.50;;;11.00;86.70;;;;;;4990769;28;20251;-76
2022/04/17 14:33:58;;;;;;;3.80;2.13;;;10.80;86.40;;;;;;4990739;28;20420;-76
2022/04/17 14:36:24;;;;;;;3.30;1.83;;;10.80;86.90;;;;;;4992075;28;20205;-75
2022/04/17 14:38:50;;;;;;;1.90;1.30;;;10.90;85.90;;;;;;4991537;28;20244;-77
2022/04/17 14:41:15;;;;;;;2.37;1.30;;;10.90;83.20;;;;;;4990092;28;20197;-77
2022/04/17 14:43:42;;;;;;;2.20;1.70;;;10.70;83.90;;;;;;4985662;28;21061;-76
2022/04/17 14:46:07;;;;;;;3.10;1.40;;;10.80;84.10;;;;;;4989477;28;20264;-77
2022/04/17 14:48:34;;;;;;;2.40;1.43;;;10.70;83.90;;;;;;4991426;28;20451;-78
2022/04/17 14:51:03;;;;;;;2.10;1.60;;;10.50;83.50;;;;;;4991397;28;20332;-76
2022/04/17 14:53:30;;;;;;;4.20;1.80;;;10.50;83.40;;;;;;4972849;28;20938;-80
2022/04/17 14:55:56;;;;;;;5.30;2.80;;;10.30;83.90;;;;;;4985026;28;20483;-77
2022/04/17 14:58:23;;;;;;;8.27;2.30;;;10.40;83.70;;;;;;4989892;28;20449;-78
2022/04/17 15:00:50;;;;;;;4.50;2.57;;;10.40;83.00;;;;;;5003430;28;20547;-76
2022/04/17 15:03:16;;;;;;;20.53;16.20;;;10.40;83.80;;;;;;4995615;28;20436;-77
2022/04/17 15:05:41;;;;;;;16.47;13.10;;;10.70;84.00;;;;;;4974007;28;20206;-78
2022/04/17 15:08:07;;;;;;;2.23;1.43;;;10.80;85.40;;;;;;4985717;28;20169;-78
2022/04/17 15:10:33;;;;;;;1.70;1.40;;;10.90;87.80;;;;;;4988514;28;20281;-78
2022/04/17 15:12:58;;;;;;;2.60;1.83;;;10.80;85.00;;;;;;4993258;28;20256;-78
2022/04/17 15:15:24;;;;;;;2.80;1.67;;;10.90;82.60;;;;;;4976497;28;20202;-78
2022/04/17 15:17:50;;;;;;;3.70;1.80;;;11.00;86.00;;;;;;4984631;28;20177;-78
2022/04/17 15:20:15;;;;;;;1.70;1.30;;;11.10;83.70;;;;;;4995519;28;20182;-79
2022/04/17 15:22:41;;;;;;;3.23;1.50;;;11.00;83.70;;;;;;4996136;28;20542;-78
2022/04/17 15:25:08;;;;;;;2.97;1.70;;;10.80;82.50;;;;;;4995654;28;20185;-77
2022/04/17 15:27:33;;;;;;;1.83;1.33;;;10.80;83.20;;;;;;4995411;28;20550;-77
2022/04/17 15:29:59;;;;;;;4.70;1.70;;;10.70;84.60;;;;;;4995071;28;20427;-77
2022/04/17 15:32:25;;;;;;;3.23;1.40;;;10.20;86.80;;;;;;4994962;28;21890;-76
2022/04/17 15:34:50;;;;;;;4.43;1.50;;;10.20;86.50;;;;;;4995641;28;20201;-78
2022/04/17 15:37:16;;;;;;;2.30;1.47;;;10.10;87.20;;;;;;4995162;28;20174;-77
2022/04/17 15:39:42;;;;;;;6.37;1.90;;;10.10;87.20;;;;;;4995076;28;20282;-78
2022/04/17 15:42:08;;;;;;;3.20;1.83;;;10.00;86.60;;;;;;4996152;28;20289;-78
2022/04/17 15:50:07;;;;;;;2.90;1.53;;;9.80;88.00;;;;;;4997112;28;20407;-75
2022/04/17 16:02:46;;;;;;;2.90;1.60;;;9.70;90.10;;;;;;5020164;28;20976;-77
2022/04/17 16:05:12;;;;;;;1.97;1.60;;;9.70;89.50;;;;;;5014470;28;20416;-77
2022/04/17 16:07:42;;;;;;;1.37;1.27;;;9.80;90.20;;;;;;4996523;28;20200;-78
2022/04/17 16:10:10;;;;;;;1.67;1.30;;;9.80;90.20;;;;;;5014606;28;20752;-77
2022/04/17 16:12:35;;;;;;;2.10;1.70;;;9.50;90.20;;;;;;5013897;28;20843;-77
2022/04/17 16:15:01;;;;;;;4.77;1.73;;;9.50;89.90;;;;;;4997343;28;20539;-77
2022/04/17 16:17:31;;;;;;;2.40;1.47;;;9.60;89.50;;;;;;4975858;28;20661;-77
2022/04/17 16:19:57;;;;;;;4.23;2.23;;;9.50;91.10;;;;;;4989101;28;20260;-77
2022/04/17 16:22:24;;;;;;;3.50;1.70;;;9.50;90.20;;;;;;4994452;28;20432;-77
2022/04/17 16:24:50;;;;;;;5.30;1.67;;;9.50;91.40;;;;;;4976969;28;20429;-77
2022/04/17 16:27:16;;;;;;;3.10;1.73;;;9.40;91.90;;;;;;4995146;28;20504;-77
2022/04/17 16:29:41;;;;;;;2.10;1.50;;;9.40;91.70;;;;;;4977744;28;20186;-78
2022/04/17 16:32:07;;;;;;;2.10;1.50;;;9.50;91.00;;;;;;4976563;28;20962;-77
2022/04/17 16:34:33;;;;;;;3.20;1.63;;;9.50;89.90;;;;;;4993765;28;20190;-77
2022/04/17 16:37:01;;;;;;;3.27;2.40;;;9.40;90.50;;;;;;4981912;28;20545;-76
2022/04/17 16:39:26;;;;;;;4.37;1.70;;;9.40;91.30;;;;;;5012524;28;20448;-78
2022/04/17 16:41:52;;;;;;;4.00;1.90;;;9.40;92.10;;;;;;4987539;28;21239;-77
2022/04/17 16:44:19;;;;;;;9.13;2.07;;;9.40;91.60;;;;;;5001190;28;20209;-77
2022/04/17 16:46:45;;;;;;;3.03;1.93;;;9.40;94.20;;;;;;5004034;28;20625;-77
2022/04/17 16:49:11;;;;;;;5.47;2.10;;;9.30;92.90;;;;;;5008435;28;20412;-77
2022/04/17 16:51:36;;;;;;;2.50;1.90;;;9.40;91.30;;;;;;4993711;28;20955;-77
2022/04/17 16:54:02;;;;;;;2.80;1.90;;;9.50;93.00;;;;;;4995854;28;20548;-77
2022/04/17 16:56:28;;;;;;;2.93;2.00;;;9.50;91.90;;;;;;4976684;28;20248;-77
2022/04/17 16:59:11;;;;;;;4.63;1.90;;;9.50;91.40;;;;;;4983336;28;20181;-78
2022/04/17 17:01:38;;;;;;;2.50;2.00;;;9.40;90.70;;;;;;4983459;28;20213;-77
2022/04/17 17:04:03;;;;;;;3.10;2.00;;;9.30;91.40;;;;;;4994009;28;20421;-78
2022/04/17 17:06:29;;;;;;;6.23;2.13;;;9.30;91.50;;;;;;5001960;28;20812;-77
2022/04/17 17:08:54;;;;;;;3.40;1.90;;;9.30;91.00;;;;;;5010824;28;20841;-78
2022/04/17 17:11:20;;;;;;;2.87;1.87;;;9.30;90.50;;;;;;5012791;28;20200;-78
2022/04/17 17:13:45;;;;;;;3.37;2.60;;;9.30;90.30;;;;;;5013779;28;20691;-78
2022/04/17 17:16:11;;;;;;;4.07;2.20;;;9.20;90.70;;;;;;5012722;28;20296;-77